sensor_id;sensor_type;location;lat;lon;timestamp;temperature;humidity
22544;DHT22;11438;52.044;8.716;2023-05-21T00:02:16;17.90;91.40
22544;DHT22;11438;52.044;8.716;2023-05-21T00:04:45;17.90;91.50
22544;DHT22;11438;52.044;8.716;2023-05-21T00:07:11;17.80;91.60
22544;DHT22;11438;52.044;8.716;2023-05-21T00:09:38;17.90;91.80
22544;DHT22;11438;52.044;8.716;2023-05-21T00:12:05;17.80;91.80
22544;DHT22;11438;52.044;8.716;2023-05-21T00:14:30;17.80;91.90
22544;DHT22;11438;52.044;8.716;2023-05-21T00:16:56;17.80;91.90
22544;DHT22;11438;52.044;8.716;2023-05-21T00:19:21;17.70;91.80
22544;DHT22;11438;52.044;8.716;2023-05-21T00:21:47;17.70;91.90
22544;DHT22;11438;52.044;8.716;2023-05-21T00:24:12;17.70;92.00
22544;DHT22;11438;52.044;8.716;2023-05-21T00:26:38;17.70;92.10
22544;DHT22;11438;52.044;8.716;2023-05-21T00:29:03;17.70;92.10
22544;DHT22;11438;52.044;8.716;2023-05-21T00:31:29;17.70;92.10
22544;DHT22;11438;52.044;8.716;2023-05-21T00:33:54;17.70;92.10
22544;DHT22;11438;52.044;8.716;2023-05-21T00:36:20;17.70;92.20
22544;DHT22;11438;52.044;8.716;2023-05-21T00:38:48;17.70;92.20
22544;DHT22;11438;52.044;8.716;2023-05-21T00:41:15;17.70;92.40
22544;DHT22;11438;52.044;8.716;2023-05-21T00:43:41;17.60;92.40
22544;DHT22;11438;52.044;8.716;2023-05-21T00:46:12;17.70;92.40
22544;DHT22;11438;52.044;8.716;2023-05-21T00:48:37;17.70;92.40
22544;DHT22;11438;52.044;8.716;2023-05-21T00:51:04;17.60;92.50
22544;DHT22;11438;52.044;8.716;2023-05-21T00:53:29;17.60;92.60
22544;DHT22;11438;52.044;8.716;2023-05-21T00:55:56;17.60;92.70
22544;DHT22;11438;52.044;8.716;2023-05-21T00:58:21;17.60;92.70
22544;DHT22;11438;52.044;8.716;2023-05-21T01:00:47;17.50;92.80
22544;DHT22;11438;52.044;8.716;2023-05-21T01:03:13;17.50;92.90
22544;DHT22;11438;52.044;8.716;2023-05-21T01:05:40;17.50;92.90
22544;DHT22;11438;52.044;8.716;2023-05-21T01:08:09;17.50;93.00
22544;DHT22;11438;52.044;8.716;2023-05-21T01:10:35;17.40;93.00
22544;DHT22;11438;52.044;8.716;2023-05-21T01:13:01;17.40;93.10
22544;DHT22;11438;52.044;8.716;2023-05-21T01:15:26;17.40;93.20
22544;DHT22;11438;52.044;8.716;2023-05-21T01:17:53;17.40;93.30
22544;DHT22;11438;52.044;8.716;2023-05-21T01:20:21;17.30;93.30
22544;DHT22;11438;52.044;8.716;2023-05-21T01:22:54;17.30;93.40
22544;DHT22;11438;52.044;8.716;2023-05-21T01:25:21;17.30;93.60
22544;DHT22;11438;52.044;8.716;2023-05-21T01:27:47;17.30;93.40
22544;DHT22;11438;52.044;8.716;2023-05-21T01:30:14;17.20;93.60
22544;DHT22;11438;52.044;8.716;2023-05-21T01:32:47;17.20;93.60
22544;DHT22;11438;52.044;8.716;2023-05-21T01:35:21;17.20;93.70
22544;DHT22;11438;52.044;8.716;2023-05-21T01:37:52;17.10;93.90
22544;DHT22;11438;52.044;8.716;2023-05-21T01:40:27;17.10;93.80
22544;DHT22;11438;52.044;8.716;2023-05-21T01:42:54;17.10;94.00
22544;DHT22;11438;52.044;8.716;2023-05-21T01:45:21;17.00;94.00
22544;DHT22;11438;52.044;8.716;2023-05-21T01:47:49;17.00;94.00
22544;DHT22;11438;52.044;8.716;2023-05-21T01:50:17;17.00;94.00
22544;DHT22;11438;52.044;8.716;2023-05-21T01:52:55;17.00;94.20
22544;DHT22;11438;52.044;8.716;2023-05-21T01:55:22;17.00;94.30
22544;DHT22;11438;52.044;8.716;2023-05-21T01:57:55;17.00;94.20
22544;DHT22;11438;52.044;8.716;2023-05-21T02:00:21;17.00;94.40
22544;DHT22;11438;52.044;8.716;2023-05-21T02:02:48;16.90;94.40
22544;DHT22;11438;52.044;8.716;2023-05-21T02:05:14;17.00;94.50
22544;DHT22;11438;52.044;8.716;2023-05-21T02:07:40;16.90;94.50
22544;DHT22;11438;52.044;8.716;2023-05-21T02:10:06;16.90;94.60
22544;DHT22;11438;52.044;8.716;2023-05-21T02:12:32;16.90;94.60
22544;DHT22;11438;52.044;8.716;2023-05-21T02:14:57;16.90;94.50
22544;DHT22;11438;52.044;8.716;2023-05-21T02:17:24;16.90;94.60
22544;DHT22;11438;52.044;8.716;2023-05-21T02:19:50;16.90;94.60
22544;DHT22;11438;52.044;8.716;2023-05-21T02:22:16;16.80;94.60
22544;DHT22;11438;52.044;8.716;2023-05-21T02:24:41;16.80;94.60
22544;DHT22;11438;52.044;8.716;2023-05-21T02:27:07;16.80;94.60
22544;DHT22;11438;52.044;8.716;2023-05-21T02:29:35;16.80;94.70
22544;DHT22;11438;52.044;8.716;2023-05-21T02:32:00;16.80;94.70
22544;DHT22;11438;52.044;8.716;2023-05-21T02:34:26;16.80;94.60
22544;DHT22;11438;52.044;8.716;2023-05-21T02:36:55;16.80;94.80
22544;DHT22;11438;52.044;8.716;2023-05-21T02:39:20;16.80;94.90
22544;DHT22;11438;52.044;8.716;2023-05-21T02:41:46;16.80;94.90
22544;DHT22;11438;52.044;8.716;2023-05-21T02:44:11;16.80;95.00
22544;DHT22;11438;52.044;8.716;2023-05-21T02:46:37;16.80;94.90
22544;DHT22;11438;52.044;8.716;2023-05-21T02:49:02;16.80;95.00
22544;DHT22;11438;52.044;8.716;2023-05-21T02:51:28;16.80;95.10
22544;DHT22;11438;52.044;8.716;2023-05-21T02:53:53;16.70;95.10
22544;DHT22;11438;52.044;8.716;2023-05-21T02:56:19;16.70;95.10
22544;DHT22;11438;52.044;8.716;2023-05-21T02:58:44;16.70;95.30
22544;DHT22;11438;52.044;8.716;2023-05-21T03:01:10;16.70;95.40
22544;DHT22;11438;52.044;8.716;2023-05-21T03:03:36;16.70;95.50
22544;DHT22;11438;52.044;8.716;2023-05-21T03:06:01;16.70;95.50
22544;DHT22;11438;52.044;8.716;2023-05-21T03:08:27;16.70;95.70
22544;DHT22;11438;52.044;8.716;2023-05-21T03:10:52;16.70;95.60
22544;DHT22;11438;52.044;8.716;2023-05-21T03:13:18;16.70;95.50
22544;DHT22;11438;52.044;8.716;2023-05-21T03:15:44;16.70;95.60
22544;DHT22;11438;52.044;8.716;2023-05-21T03:18:10;16.70;95.60
22544;DHT22;11438;52.044;8.716;2023-05-21T03:20:36;16.70;95.60
22544;DHT22;11438;52.044;8.716;2023-05-21T03:23:08;16.70;95.60
22544;DHT22;11438;52.044;8.716;2023-05-21T03:25:33;16.70;95.60
22544;DHT22;11438;52.044;8.716;2023-05-21T03:28:01;16.70;95.70
22544;DHT22;11438;52.044;8.716;2023-05-21T03:30:26;16.70;95.70
22544;DHT22;11438;52.044;8.716;2023-05-21T03:32:52;16.70;95.70
22544;DHT22;11438;52.044;8.716;2023-05-21T03:35:17;16.70;95.60
22544;DHT22;11438;52.044;8.716;2023-05-21T03:37:43;16.70;95.70
22544;DHT22;11438;52.044;8.716;2023-05-21T03:40:08;16.70;95.70
22544;DHT22;11438;52.044;8.716;2023-05-21T03:42:34;16.70;95.70
22544;DHT22;11438;52.044;8.716;2023-05-21T03:45:02;16.70;95.70
22544;DHT22;11438;52.044;8.716;2023-05-21T03:47:27;16.70;95.80
22544;DHT22;11438;52.044;8.716;2023-05-21T03:49:53;16.60;95.90
22544;DHT22;11438;52.044;8.716;2023-05-21T03:52:19;16.60;95.90
22544;DHT22;11438;52.044;8.716;2023-05-21T03:54:44;16.60;96.00
22544;DHT22;11438;52.044;8.716;2023-05-21T03:57:10;16.60;96.00
22544;DHT22;11438;52.044;8.716;2023-05-21T03:59:35;16.60;96.00
22544;DHT22;11438;52.044;8.716;2023-05-21T04:02:01;16.60;96.10
22544;DHT22;11438;52.044;8.716;2023-05-21T04:04:27;16.60;96.20
22544;DHT22;11438;52.044;8.716;2023-05-21T04:06:53;16.60;96.20
22544;DHT22;11438;52.044;8.716;2023-05-21T04:09:19;16.60;96.30
22544;DHT22;11438;52.044;8.716;2023-05-21T04:11:45;16.60;96.30
22544;DHT22;11438;52.044;8.716;2023-05-21T04:14:11;16.60;96.30
22544;DHT22;11438;52.044;8.716;2023-05-21T04:16:37;16.60;96.30
22544;DHT22;11438;52.044;8.716;2023-05-21T04:19:03;16.60;96.50
22544;DHT22;11438;52.044;8.716;2023-05-21T04:21:29;16.60;96.50
22544;DHT22;11438;52.044;8.716;2023-05-21T04:23:56;16.60;96.50
22544;DHT22;11438;52.044;8.716;2023-05-21T04:26:22;16.60;96.60
22544;DHT22;11438;52.044;8.716;2023-05-21T04:28:48;16.60;96.60
22544;DHT22;11438;52.044;8.716;2023-05-21T04:31:14;16.60;96.60
22544;DHT22;11438;52.044;8.716;2023-05-21T04:33:40;16.60;96.70
22544;DHT22;11438;52.044;8.716;2023-05-21T04:36:10;16.60;96.70
22544;DHT22;11438;52.044;8.716;2023-05-21T04:38:36;16.60;96.80
22544;DHT22;11438;52.044;8.716;2023-05-21T04:41:02;16.60;96.80
22544;DHT22;11438;52.044;8.716;2023-05-21T04:43:31;16.60;96.90
22544;DHT22;11438;52.044;8.716;2023-05-21T04:45:56;16.60;96.90
22544;DHT22;11438;52.044;8.716;2023-05-21T04:48:22;16.70;96.90
22544;DHT22;11438;52.044;8.716;2023-05-21T04:50:49;16.70;97.00
22544;DHT22;11438;52.044;8.716;2023-05-21T04:53:15;16.70;96.90
22544;DHT22;11438;52.044;8.716;2023-05-21T04:55:41;16.70;97.10
22544;DHT22;11438;52.044;8.716;2023-05-21T04:58:06;16.70;97.00
22544;DHT22;11438;52.044;8.716;2023-05-21T05:00:32;16.70;97.10
22544;DHT22;11438;52.044;8.716;2023-05-21T05:02:58;16.70;97.10
22544;DHT22;11438;52.044;8.716;2023-05-21T05:05:24;16.80;97.10
22544;DHT22;11438;52.044;8.716;2023-05-21T05:07:49;16.80;97.10
22544;DHT22;11438;52.044;8.716;2023-05-21T05:10:15;16.80;97.10
22544;DHT22;11438;52.044;8.716;2023-05-21T05:12:41;16.80;97.10
22544;DHT22;11438;52.044;8.716;2023-05-21T05:15:07;16.80;97.10
22544;DHT22;11438;52.044;8.716;2023-05-21T05:17:32;16.80;97.10
22544;DHT22;11438;52.044;8.716;2023-05-21T05:19:58;16.80;97.10
22544;DHT22;11438;52.044;8.716;2023-05-21T05:22:24;16.90;97.10
22544;DHT22;11438;52.044;8.716;2023-05-21T05:24:49;16.90;97.20
22544;DHT22;11438;52.044;8.716;2023-05-21T05:27:15;16.90;97.20
22544;DHT22;11438;52.044;8.716;2023-05-21T05:29:43;16.90;97.20
22544;DHT22;11438;52.044;8.716;2023-05-21T05:32:08;16.90;97.20
22544;DHT22;11438;52.044;8.716;2023-05-21T05:34:34;17.00;97.20
22544;DHT22;11438;52.044;8.716;2023-05-21T05:36:59;17.00;97.20
22544;DHT22;11438;52.044;8.716;2023-05-21T05:39:27;17.00;97.20
22544;DHT22;11438;52.044;8.716;2023-05-21T05:41:52;17.00;97.20
22544;DHT22;11438;52.044;8.716;2023-05-21T05:44:18;17.10;97.20
22544;DHT22;11438;52.044;8.716;2023-05-21T05:46:43;17.10;97.20
22544;DHT22;11438;52.044;8.716;2023-05-21T05:49:09;17.20;97.20
22544;DHT22;11438;52.044;8.716;2023-05-21T05:51:34;17.20;97.20
22544;DHT22;11438;52.044;8.716;2023-05-21T05:54:00;17.20;97.20
22544;DHT22;11438;52.044;8.716;2023-05-21T05:56:26;17.30;97.20
22544;DHT22;11438;52.044;8.716;2023-05-21T05:58:51;17.30;97.20
22544;DHT22;11438;52.044;8.716;2023-05-21T06:01:17;17.30;97.10
22544;DHT22;11438;52.044;8.716;2023-05-21T06:03:43;17.30;97.10
22544;DHT22;11438;52.044;8.716;2023-05-21T06:06:09;17.40;97.10
22544;DHT22;11438;52.044;8.716;2023-05-21T06:08:35;17.40;97.00
22544;DHT22;11438;52.044;8.716;2023-05-21T06:11:01;17.40;97.10
22544;DHT22;11438;52.044;8.716;2023-05-21T06:13:26;17.40;97.10
22544;DHT22;11438;52.044;8.716;2023-05-21T06:15:52;17.50;97.00
22544;DHT22;11438;52.044;8.716;2023-05-21T06:18:18;17.50;97.00
22544;DHT22;11438;52.044;8.716;2023-05-21T06:20:43;17.50;97.00
22544;DHT22;11438;52.044;8.716;2023-05-21T06:23:09;17.50;97.00
22544;DHT22;11438;52.044;8.716;2023-05-21T06:25:34;17.50;97.10
22544;DHT22;11438;52.044;8.716;2023-05-21T06:28:00;17.60;97.00
22544;DHT22;11438;52.044;8.716;2023-05-21T06:30:25;17.60;97.00
22544;DHT22;11438;52.044;8.716;2023-05-21T06:32:51;17.60;96.90
22544;DHT22;11438;52.044;8.716;2023-05-21T06:35:16;17.60;96.90
22544;DHT22;11438;52.044;8.716;2023-05-21T06:37:42;17.70;97.00
22544;DHT22;11438;52.044;8.716;2023-05-21T06:40:08;17.70;97.00
22544;DHT22;11438;52.044;8.716;2023-05-21T06:42:33;17.70;97.00
22544;DHT22;11438;52.044;8.716;2023-05-21T06:45:00;17.70;97.00
22544;DHT22;11438;52.044;8.716;2023-05-21T06:47:26;17.70;96.90
22544;DHT22;11438;52.044;8.716;2023-05-21T06:49:51;17.80;96.90
22544;DHT22;11438;52.044;8.716;2023-05-21T06:52:17;17.80;96.90
22544;DHT22;11438;52.044;8.716;2023-05-21T06:54:42;17.80;97.00
22544;DHT22;11438;52.044;8.716;2023-05-21T06:57:08;17.90;97.00
22544;DHT22;11438;52.044;8.716;2023-05-21T06:59:33;17.90;96.90
22544;DHT22;11438;52.044;8.716;2023-05-21T07:01:59;17.90;96.80
22544;DHT22;11438;52.044;8.716;2023-05-21T07:04:24;17.90;96.80
22544;DHT22;11438;52.044;8.716;2023-05-21T07:06:50;18.00;96.80
22544;DHT22;11438;52.044;8.716;2023-05-21T07:09:16;18.00;96.80
22544;DHT22;11438;52.044;8.716;2023-05-21T07:11:42;18.00;96.80
22544;DHT22;11438;52.044;8.716;2023-05-21T07:14:08;18.00;96.90
22544;DHT22;11438;52.044;8.716;2023-05-21T07:16:34;18.00;96.90
22544;DHT22;11438;52.044;8.716;2023-05-21T07:18:59;18.10;96.90
22544;DHT22;11438;52.044;8.716;2023-05-21T07:21:25;18.10;96.80
22544;DHT22;11438;52.044;8.716;2023-05-21T07:23:50;18.10;96.90
22544;DHT22;11438;52.044;8.716;2023-05-21T07:26:16;18.20;96.90
22544;DHT22;11438;52.044;8.716;2023-05-21T07:28:41;18.20;96.90
22544;DHT22;11438;52.044;8.716;2023-05-21T07:31:07;18.20;96.90
22544;DHT22;11438;52.044;8.716;2023-05-21T07:33:33;18.20;96.90
22544;DHT22;11438;52.044;8.716;2023-05-21T07:35:58;18.30;96.90
22544;DHT22;11438;52.044;8.716;2023-05-21T07:38:24;18.40;97.00
22544;DHT22;11438;52.044;8.716;2023-05-21T07:40:49;18.40;96.80
22544;DHT22;11438;52.044;8.716;2023-05-21T07:43:15;18.50;96.90
22544;DHT22;11438;52.044;8.716;2023-05-21T07:45:40;18.50;96.90
22544;DHT22;11438;52.044;8.716;2023-05-21T07:48:06;18.60;96.90
22544;DHT22;11438;52.044;8.716;2023-05-21T07:50:31;18.60;96.70
22544;DHT22;11438;52.044;8.716;2023-05-21T07:52:57;18.70;96.70
22544;DHT22;11438;52.044;8.716;2023-05-21T07:55:22;18.70;96.80
22544;DHT22;11438;52.044;8.716;2023-05-21T07:57:48;18.80;96.80
22544;DHT22;11438;52.044;8.716;2023-05-21T08:00:14;18.90;96.80
22544;DHT22;11438;52.044;8.716;2023-05-21T08:02:39;18.90;96.70
22544;DHT22;11438;52.044;8.716;2023-05-21T08:05:05;19.00;96.80
22544;DHT22;11438;52.044;8.716;2023-05-21T08:07:31;19.00;96.50
22544;DHT22;11438;52.044;8.716;2023-05-21T08:09:57;19.10;96.60
22544;DHT22;11438;52.044;8.716;2023-05-21T08:12:23;19.10;96.50
22544;DHT22;11438;52.044;8.716;2023-05-21T08:14:48;19.20;96.40
22544;DHT22;11438;52.044;8.716;2023-05-21T08:17:15;19.30;96.60
22544;DHT22;11438;52.044;8.716;2023-05-21T08:19:40;19.30;96.30
22544;DHT22;11438;52.044;8.716;2023-05-21T08:22:06;19.40;96.20
22544;DHT22;11438;52.044;8.716;2023-05-21T08:24:31;19.40;96.30
22544;DHT22;11438;52.044;8.716;2023-05-21T08:26:57;19.50;96.20
22544;DHT22;11438;52.044;8.716;2023-05-21T08:29:23;19.50;96.30
22544;DHT22;11438;52.044;8.716;2023-05-21T08:31:48;19.60;96.40
22544;DHT22;11438;52.044;8.716;2023-05-21T08:34:13;19.60;96.30
22544;DHT22;11438;52.044;8.716;2023-05-21T08:36:39;19.70;96.30
22544;DHT22;11438;52.044;8.716;2023-05-21T08:39:07;19.70;96.20
22544;DHT22;11438;52.044;8.716;2023-05-21T08:41:34;19.80;96.20
22544;DHT22;11438;52.044;8.716;2023-05-21T08:44:01;19.80;96.30
22544;DHT22;11438;52.044;8.716;2023-05-21T08:46:32;19.90;96.30
22544;DHT22;11438;52.044;8.716;2023-05-21T08:49:02;20.00;96.00
22544;DHT22;11438;52.044;8.716;2023-05-21T08:51:29;20.00;96.20
22544;DHT22;11438;52.044;8.716;2023-05-21T08:53:56;20.10;95.80
22544;DHT22;11438;52.044;8.716;2023-05-21T08:56:22;20.10;95.70
22544;DHT22;11438;52.044;8.716;2023-05-21T08:58:50;20.20;95.70
22544;DHT22;11438;52.044;8.716;2023-05-21T09:01:16;20.20;95.60
22544;DHT22;11438;52.044;8.716;2023-05-21T09:03:44;20.30;95.50
22544;DHT22;11438;52.044;8.716;2023-05-21T09:06:12;20.30;95.70
22544;DHT22;11438;52.044;8.716;2023-05-21T09:08:43;20.40;96.20
22544;DHT22;11438;52.044;8.716;2023-05-21T09:11:13;20.40;95.90
22544;DHT22;11438;52.044;8.716;2023-05-21T09:13:39;20.50;95.70
22544;DHT22;11438;52.044;8.716;2023-05-21T09:16:06;20.60;95.70
22544;DHT22;11438;52.044;8.716;2023-05-21T09:18:32;20.70;95.70
22544;DHT22;11438;52.044;8.716;2023-05-21T09:20:59;20.70;95.50
22544;DHT22;11438;52.044;8.716;2023-05-21T09:23:43;20.80;95.30
22544;DHT22;11438;52.044;8.716;2023-05-21T09:26:11;20.90;95.20
22544;DHT22;11438;52.044;8.716;2023-05-21T09:28:37;20.90;95.50
22544;DHT22;11438;52.044;8.716;2023-05-21T09:31:02;21.00;95.30
22544;DHT22;11438;52.044;8.716;2023-05-21T09:33:28;21.00;95.20
22544;DHT22;11438;52.044;8.716;2023-05-21T09:35:54;21.00;95.10
22544;DHT22;11438;52.044;8.716;2023-05-21T09:38:22;21.10;95.00
22544;DHT22;11438;52.044;8.716;2023-05-21T09:40:49;21.10;95.20
22544;DHT22;11438;52.044;8.716;2023-05-21T09:43:14;21.10;95.30
22544;DHT22;11438;52.044;8.716;2023-05-21T09:45:53;21.20;95.30
22544;DHT22;11438;52.044;8.716;2023-05-21T09:48:37;21.20;95.10
22544;DHT22;11438;52.044;8.716;2023-05-21T09:51:18;21.30;95.20
22544;DHT22;11438;52.044;8.716;2023-05-21T09:53:56;21.30;95.30
22544;DHT22;11438;52.044;8.716;2023-05-21T09:56:27;21.40;95.10
22544;DHT22;11438;52.044;8.716;2023-05-21T09:58:58;21.50;95.30
22544;DHT22;11438;52.044;8.716;2023-05-21T10:01:26;21.50;95.40
22544;DHT22;11438;52.044;8.716;2023-05-21T10:03:56;21.60;95.60
22544;DHT22;11438;52.044;8.716;2023-05-21T10:06:33;21.70;95.60
22544;DHT22;11438;52.044;8.716;2023-05-21T10:09:02;21.80;95.50
22544;DHT22;11438;52.044;8.716;2023-05-21T10:11:30;21.90;95.20
22544;DHT22;11438;52.044;8.716;2023-05-21T10:14:08;22.00;94.90
22544;DHT22;11438;52.044;8.716;2023-05-21T10:16:34;22.00;95.10
22544;DHT22;11438;52.044;8.716;2023-05-21T10:19:00;22.10;95.00
22544;DHT22;11438;52.044;8.716;2023-05-21T10:21:27;22.30;94.90
22544;DHT22;11438;52.044;8.716;2023-05-21T10:23:57;22.30;95.20
22544;DHT22;11438;52.044;8.716;2023-05-21T10:26:23;22.40;95.40
22544;DHT22;11438;52.044;8.716;2023-05-21T10:28:50;22.50;95.10
22544;DHT22;11438;52.044;8.716;2023-05-21T10:31:17;22.60;94.80
22544;DHT22;11438;52.044;8.716;2023-05-21T10:33:43;22.70;95.00
22544;DHT22;11438;52.044;8.716;2023-05-21T10:36:08;22.70;94.80
22544;DHT22;11438;52.044;8.716;2023-05-21T10:38:36;22.80;94.80
22544;DHT22;11438;52.044;8.716;2023-05-21T10:41:04;22.90;94.80
22544;DHT22;11438;52.044;8.716;2023-05-21T10:43:51;22.90;95.00
22544;DHT22;11438;52.044;8.716;2023-05-21T10:46:46;23.00;95.00
22544;DHT22;11438;52.044;8.716;2023-05-21T10:59:44;23.40;94.70
22544;DHT22;11438;52.044;8.716;2023-05-21T11:02:12;23.50;94.50
22544;DHT22;11438;52.044;8.716;2023-05-21T11:04:39;23.60;94.50
22544;DHT22;11438;52.044;8.716;2023-05-21T11:07:07;23.60;94.20
22544;DHT22;11438;52.044;8.716;2023-05-21T11:09:33;23.70;94.00
22544;DHT22;11438;52.044;8.716;2023-05-21T11:11:59;23.70;93.90
22544;DHT22;11438;52.044;8.716;2023-05-21T11:14:32;23.80;93.80
22544;DHT22;11438;52.044;8.716;2023-05-21T11:17:15;23.80;93.70
22544;DHT22;11438;52.044;8.716;2023-05-21T11:19:44;23.90;93.50
22544;DHT22;11438;52.044;8.716;2023-05-21T11:22:25;24.00;94.10
22544;DHT22;11438;52.044;8.716;2023-05-21T11:24:51;24.10;93.70
22544;DHT22;11438;52.044;8.716;2023-05-21T11:27:33;24.20;93.90
22544;DHT22;11438;52.044;8.716;2023-05-21T11:30:03;24.20;93.40
22544;DHT22;11438;52.044;8.716;2023-05-21T11:32:28;24.30;93.80
22544;DHT22;11438;52.044;8.716;2023-05-21T11:34:59;24.40;93.80
22544;DHT22;11438;52.044;8.716;2023-05-21T11:37:27;24.50;93.40
22544;DHT22;11438;52.044;8.716;2023-05-21T11:42:56;24.60;93.10
22544;DHT22;11438;52.044;8.716;2023-05-21T11:45:26;24.60;92.80
22544;DHT22;11438;52.044;8.716;2023-05-21T11:47:52;24.70;92.90
22544;DHT22;11438;52.044;8.716;2023-05-21T11:50:19;24.80;92.80
22544;DHT22;11438;52.044;8.716;2023-05-21T11:52:45;24.90;92.70
22544;DHT22;11438;52.044;8.716;2023-05-21T11:55:11;25.00;92.30
22544;DHT22;11438;52.044;8.716;2023-05-21T11:57:40;25.00;92.30
22544;DHT22;11438;52.044;8.716;2023-05-21T12:00:13;25.10;92.30
22544;DHT22;11438;52.044;8.716;2023-05-21T12:02:44;25.20;92.00
22544;DHT22;11438;52.044;8.716;2023-05-21T12:05:10;25.30;91.70
22544;DHT22;11438;52.044;8.716;2023-05-21T12:07:36;25.40;91.40
22544;DHT22;11438;52.044;8.716;2023-05-21T12:10:03;25.40;91.10
22544;DHT22;11438;52.044;8.716;2023-05-21T12:12:30;25.50;91.50
22544;DHT22;11438;52.044;8.716;2023-05-21T12:14:57;25.60;91.70
22544;DHT22;11438;52.044;8.716;2023-05-21T12:17:24;25.60;91.20
22544;DHT22;11438;52.044;8.716;2023-05-21T12:19:51;25.70;90.90
22544;DHT22;11438;52.044;8.716;2023-05-21T12:22:17;25.80;91.10
22544;DHT22;11438;52.044;8.716;2023-05-21T12:24:43;25.80;90.90
22544;DHT22;11438;52.044;8.716;2023-05-21T12:27:10;25.90;91.00
22544;DHT22;11438;52.044;8.716;2023-05-21T12:29:38;26.00;91.20
22544;DHT22;11438;52.044;8.716;2023-05-21T12:32:06;26.10;90.70
22544;DHT22;11438;52.044;8.716;2023-05-21T12:34:40;26.20;90.40
22544;DHT22;11438;52.044;8.716;2023-05-21T12:37:07;26.30;90.10
22544;DHT22;11438;52.044;8.716;2023-05-21T12:39:37;26.30;90.10
22544;DHT22;11438;52.044;8.716;2023-05-21T12:42:04;26.40;90.20
22544;DHT22;11438;52.044;8.716;2023-05-21T12:44:30;26.40;90.00
22544;DHT22;11438;52.044;8.716;2023-05-21T12:46:57;26.50;90.20
22544;DHT22;11438;52.044;8.716;2023-05-21T12:49:31;26.60;89.80
22544;DHT22;11438;52.044;8.716;2023-05-21T12:51:57;26.60;89.70
22544;DHT22;11438;52.044;8.716;2023-05-21T12:54:29;26.70;89.80
22544;DHT22;11438;52.044;8.716;2023-05-21T12:56:55;26.70;90.30
22544;DHT22;11438;52.044;8.716;2023-05-21T12:59:21;26.80;90.00
22544;DHT22;11438;52.044;8.716;2023-05-21T13:01:47;26.80;89.60
22544;DHT22;11438;52.044;8.716;2023-05-21T13:04:12;26.80;89.50
22544;DHT22;11438;52.044;8.716;2023-05-21T13:06:42;26.90;88.90
22544;DHT22;11438;52.044;8.716;2023-05-21T13:09:08;26.90;88.10
22544;DHT22;11438;52.044;8.716;2023-05-21T13:11:33;27.00;88.20
22544;DHT22;11438;52.044;8.716;2023-05-21T13:13:58;27.00;88.10
22544;DHT22;11438;52.044;8.716;2023-05-21T13:16:24;27.00;87.50
22544;DHT22;11438;52.044;8.716;2023-05-21T13:18:50;27.00;87.70
22544;DHT22;11438;52.044;8.716;2023-05-21T13:21:15;27.10;88.10
22544;DHT22;11438;52.044;8.716;2023-05-21T13:23:41;27.00;87.40
22544;DHT22;11438;52.044;8.716;2023-05-21T13:26:06;27.10;87.40
22544;DHT22;11438;52.044;8.716;2023-05-21T13:28:32;27.10;87.50
22544;DHT22;11438;52.044;8.716;2023-05-21T13:30:57;27.10;87.50
22544;DHT22;11438;52.044;8.716;2023-05-21T13:33:23;27.20;87.10
22544;DHT22;11438;52.044;8.716;2023-05-21T13:35:48;27.20;86.80
22544;DHT22;11438;52.044;8.716;2023-05-21T13:38:16;27.30;87.30
22544;DHT22;11438;52.044;8.716;2023-05-21T13:40:41;27.30;88.10
22544;DHT22;11438;52.044;8.716;2023-05-21T13:43:07;27.40;88.10
22544;DHT22;11438;52.044;8.716;2023-05-21T13:45:33;27.40;87.30
22544;DHT22;11438;52.044;8.716;2023-05-21T13:47:58;27.50;86.20
22544;DHT22;11438;52.044;8.716;2023-05-21T13:50:24;27.50;86.90
22544;DHT22;11438;52.044;8.716;2023-05-21T13:52:50;27.50;85.10
22544;DHT22;11438;52.044;8.716;2023-05-21T13:55:15;27.60;84.90
22544;DHT22;11438;52.044;8.716;2023-05-21T13:57:41;27.70;85.90
22544;DHT22;11438;52.044;8.716;2023-05-21T14:00:07;27.70;85.70
22544;DHT22;11438;52.044;8.716;2023-05-21T14:02:34;27.80;85.60
22544;DHT22;11438;52.044;8.716;2023-05-21T14:05:00;27.80;85.10
22544;DHT22;11438;52.044;8.716;2023-05-21T14:07:25;27.90;84.20
22544;DHT22;11438;52.044;8.716;2023-05-21T14:09:51;27.90;84.00
22544;DHT22;11438;52.044;8.716;2023-05-21T14:12:17;27.90;84.00
22544;DHT22;11438;52.044;8.716;2023-05-21T14:14:43;27.90;84.00
22544;DHT22;11438;52.044;8.716;2023-05-21T14:17:08;27.90;85.00
22544;DHT22;11438;52.044;8.716;2023-05-21T14:19:34;27.90;85.00
22544;DHT22;11438;52.044;8.716;2023-05-21T14:22:00;28.00;83.90
22544;DHT22;11438;52.044;8.716;2023-05-21T14:24:25;28.00;83.90
22544;DHT22;11438;52.044;8.716;2023-05-21T14:26:51;28.00;84.70
22544;DHT22;11438;52.044;8.716;2023-05-21T14:29:16;28.00;83.80
22544;DHT22;11438;52.044;8.716;2023-05-21T14:31:42;28.00;83.80
22544;DHT22;11438;52.044;8.716;2023-05-21T14:34:07;28.00;83.60
22544;DHT22;11438;52.044;8.716;2023-05-21T14:36:33;28.00;82.80
22544;DHT22;11438;52.044;8.716;2023-05-21T14:38:59;28.00;83.80
22544;DHT22;11438;52.044;8.716;2023-05-21T14:41:26;28.00;84.30
22544;DHT22;11438;52.044;8.716;2023-05-21T14:43:52;28.00;83.90
22544;DHT22;11438;52.044;8.716;2023-05-21T14:46:17;28.00;83.50
22544;DHT22;11438;52.044;8.716;2023-05-21T14:48:43;28.10;83.70
22544;DHT22;11438;52.044;8.716;2023-05-21T14:51:11;28.10;83.80
22544;DHT22;11438;52.044;8.716;2023-05-21T14:53:37;28.10;83.60
22544;DHT22;11438;52.044;8.716;2023-05-21T14:56:04;28.10;83.10
22544;DHT22;11438;52.044;8.716;2023-05-21T14:58:29;28.10;82.80
22544;DHT22;11438;52.044;8.716;2023-05-21T15:00:55;28.20;82.60
22544;DHT22;11438;52.044;8.716;2023-05-21T15:03:20;28.20;82.60
22544;DHT22;11438;52.044;8.716;2023-05-21T15:05:46;28.20;82.50
22544;DHT22;11438;52.044;8.716;2023-05-21T15:08:11;28.20;82.80
22544;DHT22;11438;52.044;8.716;2023-05-21T15:10:37;28.20;82.80
22544;DHT22;11438;52.044;8.716;2023-05-21T15:13:02;28.20;83.00
22544;DHT22;11438;52.044;8.716;2023-05-21T15:15:28;28.20;83.20
22544;DHT22;11438;52.044;8.716;2023-05-21T15:17:53;28.30;82.40
22544;DHT22;11438;52.044;8.716;2023-05-21T15:20:19;28.30;81.80
22544;DHT22;11438;52.044;8.716;2023-05-21T15:22:45;28.30;82.10
22544;DHT22;11438;52.044;8.716;2023-05-21T15:25:11;28.40;82.10
22544;DHT22;11438;52.044;8.716;2023-05-21T15:27:37;28.40;81.90
22544;DHT22;11438;52.044;8.716;2023-05-21T15:30:03;28.50;82.10
22544;DHT22;11438;52.044;8.716;2023-05-21T15:32:29;28.60;81.80
22544;DHT22;11438;52.044;8.716;2023-05-21T15:34:55;28.60;81.50
22544;DHT22;11438;52.044;8.716;2023-05-21T15:37:21;28.70;80.90
22544;DHT22;11438;52.044;8.716;2023-05-21T15:39:47;28.80;81.30
22544;DHT22;11438;52.044;8.716;2023-05-21T15:42:17;28.80;80.80